createdAt,value
2022-08-08T00:00:55.024Z,80.66
2022-08-08T00:03:13.273Z,79.64
2022-08-08T00:06:03.867Z,80.39
2022-08-08T00:08:43.452Z,80.35
2022-08-08T00:11:46.840Z,79.31
2022-08-08T00:14:54.787Z,81.47
2022-08-08T00:17:48.049Z,82.11
2022-08-08T00:20:34.240Z,80.06
2022-08-08T00:23:11.405Z,80.39
2022-08-08T00:25:51.214Z,82.16
2022-08-08T00:28:35.330Z,83.55
2022-08-08T00:32:21.292Z,83.37
2022-08-08T00:34:48.698Z,83.65
2022-08-08T00:37:48.015Z,83.96
2022-08-08T00:41:12.668Z,83.82
2022-08-08T00:44:53.479Z,81.08
2022-08-08T00:48:30.226Z,83.04
2022-08-08T00:52:14.962Z,82.66
2022-08-08T00:55:22.305Z,83.70
2022-08-08T00:58:54.148Z,84.32
2022-08-08T01:01:38.783Z,83.74
2022-08-08T01:04:59.488Z,85.07
2022-08-08T01:08:14.427Z,85.56
2022-08-08T01:11:48.312Z,86.73
2022-08-08T01:15:26.128Z,86.11
2022-08-08T01:19:52.066Z,86.59
2022-08-08T01:23:05.761Z,90.97
2022-08-08T01:26:34.329Z,86.71
2022-08-08T01:29:58.611Z,88.29
2022-08-08T01:34:00.105Z,90.06
2022-08-08T01:37:56.527Z,92.28
2022-08-08T01:40:34.810Z,88.77
2022-08-08T01:43:20.218Z,94.38
2022-08-08T01:46:02.041Z,92.70
2022-08-08T01:48:53.245Z,92.96
2022-08-08T01:52:33.469Z,95.33
2022-08-08T01:55:25.561Z,96.47
2022-08-08T01:58:39.466Z,98.33
2022-08-08T02:01:28.105Z,96.31
2022-08-08T02:04:35.020Z,96.98
2022-08-08T02:07:10.403Z,99.30
2022-08-08T02:10:30.085Z,100.00
2022-08-08T02:13:52.333Z,100.00
2022-08-08T02:16:21.158Z,100.00
2022-08-08T02:19:10.051Z,100.00
2022-08-08T02:22:18.819Z,100.00
2022-08-08T02:25:00.925Z,100.00
2022-08-08T02:27:43.962Z,100.00
2022-08-08T02:30:24.867Z,100.00
2022-08-08T02:33:14.375Z,100.00
2022-08-08T02:36:04.525Z,100.00
2022-08-08T02:38:54.857Z,100.00
2022-08-08T02:42:18.097Z,100.00
2022-08-08T02:45:57.451Z,100.00
2022-08-08T02:49:09.402Z,100.00
2022-08-08T02:52:32.597Z,100.00
2022-08-08T02:55:37.184Z,100.00
2022-08-08T02:59:05.869Z,100.00
2022-08-08T03:02:39.605Z,100.00
2022-08-08T03:06:00.219Z,100.00
2022-08-08T03:09:34.344Z,100.00
2022-08-08T03:13:07.204Z,100.00
2022-08-08T03:16:19.776Z,100.00
2022-08-08T03:19:50.720Z,100.00
2022-08-08T03:22:38.484Z,100.00
2022-08-08T03:25:17.915Z,100.00
2022-08-08T03:27:57.098Z,100.00
2022-08-08T03:30:26.948Z,100.00
2022-08-08T03:33:55.863Z,100.00
2022-08-08T03:36:04.475Z,100.00
2022-08-08T03:38:57.287Z,100.00
2022-08-08T03:42:12.359Z,100.00
2022-08-08T03:44:25.704Z,100.00
2022-08-08T03:46:55.107Z,100.00
2022-08-08T03:49:57.547Z,100.00
2022-08-08T03:52:16.079Z,100.00
2022-08-08T03:55:02.583Z,100.00
2022-08-08T03:58:30.523Z,100.00
2022-08-08T04:00:30.565Z,100.00
2022-08-08T04:03:03.490Z,100.00
2022-08-08T04:05:36.165Z,100.00
2022-08-08T04:08:08.658Z,100.00
2022-08-08T04:10:38.618Z,100.00
2022-08-08T04:13:17.468Z,100.00
2022-08-08T04:16:03.563Z,100.00
2022-08-08T04:18:41.883Z,100.00
2022-08-08T04:21:13.837Z,100.00
2022-08-08T04:24:12.095Z,100.00
2022-08-08T04:26:57.226Z,100.00
2022-08-08T04:29:36.973Z,100.00
2022-08-08T04:32:08.290Z,100.00
2022-08-08T04:34:49.289Z,100.00
2022-08-08T04:37:32.132Z,100.00
2022-08-08T04:40:05.140Z,100.00
2022-08-08T04:42:36.783Z,100.00
2022-08-08T04:45:09.036Z,100.00
2022-08-08T04:47:46.139Z,100.00
2022-08-08T04:50:24.121Z,100.00
2022-08-08T04:53:01.103Z,100.00
2022-08-08T04:55:47.711Z,100.00
2022-08-08T04:58:23.448Z,100.00
2022-08-08T05:00:53.694Z,100.00
2022-08-08T05:04:08.238Z,100.00
2022-08-08T05:06:12.713Z,100.00
2022-08-08T05:08:43.251Z,100.00
2022-08-08T05:11:17.393Z,100.00
2022-08-08T05:13:54.923Z,100.00
2022-08-08T05:16:51.673Z,100.00
2022-08-08T05:20:12.852Z,100.00
2022-08-08T05:22:10.118Z,100.00
2022-08-08T05:24:40.324Z,100.00
2022-08-08T05:27:09.269Z,100.00
2022-08-08T05:29:38.510Z,100.00
2022-08-08T05:32:12.705Z,100.00
2022-08-08T05:34:49.306Z,100.00
2022-08-08T05:37:24.019Z,100.00
2022-08-08T05:40:09.935Z,100.00
2022-08-08T05:42:49.162Z,100.00
2022-08-08T05:45:25.071Z,100.00
2022-08-08T05:48:08.631Z,100.00
2022-08-08T05:50:39.265Z,100.00
2022-08-08T05:53:54.751Z,100.00
2022-08-08T05:56:10.376Z,100.00
2022-08-08T05:58:56.935Z,100.00
2022-08-08T06:01:52.605Z,100.00
2022-08-08T06:04:28.761Z,100.00
2022-08-08T06:07:00.462Z,100.00
2022-08-08T06:10:00.618Z,100.00
2022-08-08T06:12:31.057Z,100.00
2022-08-08T06:15:03.016Z,100.00
2022-08-08T06:18:18.296Z,100.00
2022-08-08T06:20:27.143Z,100.00
2022-08-08T06:22:57.964Z,100.00
2022-08-08T06:25:58.789Z,100.00
2022-08-08T06:28:29.022Z,100.00
2022-08-08T06:31:03.232Z,100.00
2022-08-08T06:34:26.067Z,98.04
2022-08-08T06:36:47.781Z,93.12
2022-08-08T06:39:25.246Z,93.09
2022-08-08T06:42:03.233Z,88.55
2022-08-08T06:44:34.493Z,87.81
2022-08-08T06:47:03.763Z,83.11
2022-08-08T06:49:56.627Z,83.80
2022-08-08T06:52:27.686Z,83.18
2022-08-08T06:54:58.673Z,81.03
2022-08-08T06:57:29.471Z,81.35
2022-08-08T07:00:30.222Z,76.88
2022-08-08T07:03:08.578Z,74.35
2022-08-08T07:06:01.977Z,74.23
2022-08-08T07:08:39.345Z,72.95
2022-08-08T07:11:22.259Z,72.28
2022-08-08T07:14:01.678Z,70.01
2022-08-08T07:16:51.083Z,68.20
2022-08-08T07:19:38.864Z,69.14
2022-08-08T07:22:11.891Z,67.03
2022-08-08T07:24:56.710Z,66.73
2022-08-08T07:27:35.171Z,65.74
2022-08-08T07:30:25.329Z,63.10
2022-08-08T07:32:59.550Z,62.96
2022-08-08T07:35:31.270Z,62.01
2022-08-08T07:38:10.488Z,60.54
2022-08-08T07:41:04.169Z,57.05
2022-08-08T07:43:37.602Z,55.72
2022-08-08T07:46:23.503Z,57.01
2022-08-08T07:48:53.202Z,55.17
2022-08-08T07:51:23.992Z,54.44
2022-08-08T07:54:26.530Z,53.51
2022-08-08T07:57:26.923Z,52.75
2022-08-08T08:00:15.954Z,50.11
2022-08-08T08:02:55.979Z,50.15
2022-08-08T08:05:33.329Z,50.07
2022-08-08T08:08:07.738Z,50.38
2022-08-08T08:10:39.436Z,47.88
2022-08-08T08:13:25.980Z,47.77
2022-08-08T08:16:19.224Z,46.63
2022-08-08T08:18:56.480Z,44.66
2022-08-08T08:21:44.269Z,45.68
2022-08-08T08:24:19.280Z,44.36
2022-08-08T08:26:52.847Z,43.32
2022-08-08T08:29:28.039Z,45.35
2022-08-08T08:31:58.351Z,44.63
2022-08-08T08:34:32.551Z,42.06
2022-08-08T08:37:08.184Z,42.59
2022-08-08T08:39:59.247Z,41.62
2022-08-08T08:42:29.114Z,39.84
2022-08-08T08:45:21.281Z,39.73
2022-08-08T08:47:54.600Z,39.94
2022-08-08T08:50:31.931Z,38.99
2022-08-08T08:53:54.090Z,35.55
2022-08-08T08:56:02.539Z,36.10
2022-08-08T08:58:35.545Z,34.92
2022-08-08T09:01:13.595Z,35.65
2022-08-08T09:03:50.443Z,36.07
2022-08-08T09:06:26.802Z,35.92
2022-08-08T09:09:07.247Z,34.90
2022-08-08T09:12:02.414Z,33.92
2022-08-08T09:14:43.158Z,33.95
2022-08-08T09:17:19.066Z,32.75
2022-08-08T09:22:02.130Z,33.98
2022-08-08T09:22:39.382Z,31.55
2022-08-08T09:25:10.597Z,30.56
2022-08-08T09:27:56.082Z,31.26
2022-08-08T09:30:32.506Z,30.59
2022-08-08T09:33:54.181Z,31.94
2022-08-08T09:35:54.691Z,31.00
2022-08-08T09:38:52.590Z,31.85
2022-08-08T09:42:13.960Z,32.51
2022-08-08T09:44:45.693Z,30.28
2022-08-08T09:48:04.894Z,31.43
2022-08-08T09:50:13.569Z,30.23
2022-08-08T09:52:58.388Z,32.09
2022-08-08T09:55:51.873Z,30.48
2022-08-08T09:58:26.312Z,29.89
2022-08-08T10:01:14.495Z,28.58
2022-08-08T10:03:56.289Z,30.12
2022-08-08T10:06:29.768Z,28.42
2022-08-08T10:09:01.620Z,28.09
2022-08-08T10:12:26.527Z,27.99
2022-08-08T10:14:28.293Z,27.17
2022-08-08T10:17:56.526Z,27.87
2022-08-08T10:20:00.033Z,27.16
2022-08-08T10:22:33.314Z,27.47
2022-08-08T10:25:16.616Z,25.63
2022-08-08T10:27:46.186Z,27.77
2022-08-08T10:31:00.295Z,27.49
2022-08-08T10:33:12.245Z,27.19
2022-08-08T10:36:07.462Z,27.13
2022-08-08T10:38:35.529Z,26.32
2022-08-08T10:41:20.316Z,27.86
2022-08-08T10:43:52.647Z,26.31
2022-08-08T10:46:30.193Z,27.25
2022-08-08T10:49:00.268Z,26.36
2022-08-08T10:51:47.447Z,27.60
2022-08-08T10:54:27.017Z,26.59
2022-08-08T10:57:00.444Z,26.54
2022-08-08T10:59:39.669Z,26.91
2022-08-08T11:02:10.618Z,25.98
2022-08-08T11:04:53.045Z,26.08
2022-08-08T11:08:30.106Z,28.36
2022-08-08T11:10:28.372Z,25.77
2022-08-08T11:13:29.994Z,25.90
2022-08-08T11:15:52.387Z,27.58
2022-08-08T11:18:32.570Z,26.51
2022-08-08T11:21:08.793Z,26.17
2022-08-08T11:23:43.339Z,25.40
2022-08-08T11:26:19.460Z,24.25
2022-08-08T11:28:50.593Z,25.14
2022-08-08T11:31:23.143Z,25.60
2022-08-08T11:34:03.207Z,25.94
2022-08-08T11:36:36.362Z,26.04
2022-08-08T11:39:12.708Z,25.03
2022-08-08T11:41:45.621Z,24.18
2022-08-08T11:44:15.856Z,25.36
2022-08-08T11:46:45.596Z,24.13
2022-08-08T11:49:22.880Z,23.84
2022-08-08T11:51:53.846Z,26.48
2022-08-08T11:54:34.818Z,24.84
2022-08-08T11:57:14.621Z,24.24
2022-08-08T12:00:01.228Z,23.71
2022-08-08T12:02:34.241Z,24.58
2022-08-08T12:05:07.298Z,22.91
2022-08-08T12:07:49.719Z,24.31
2022-08-08T12:10:22.553Z,23.57
2022-08-08T12:13:03.499Z,25.26
2022-08-08T12:15:42.498Z,23.90
2022-08-08T12:18:21.419Z,21.96
2022-08-08T12:20:54.696Z,24.46
2022-08-08T12:23:42.845Z,24.11
2022-08-08T12:26:28.164Z,23.09
2022-08-08T12:29:21.754Z,24.51
2022-08-08T12:32:13.454Z,24.29
2022-08-08T12:34:48.922Z,23.75
2022-08-08T12:37:22.807Z,23.64
2022-08-08T12:40:01.189Z,24.50
2022-08-08T12:42:32.911Z,24.31
2022-08-08T12:45:57.921Z,23.89
2022-08-08T12:48:09.608Z,23.41
2022-08-08T12:50:54.661Z,23.85
2022-08-08T12:53:35.187Z,24.11
2022-08-08T12:56:19.891Z,22.83
2022-08-08T12:58:55.278Z,22.83
2022-08-08T13:01:37.754Z,24.40
2022-08-08T13:04:18.312Z,25.20
2022-08-08T13:06:55.740Z,24.69
2022-08-08T13:10:00.657Z,23.95
2022-08-08T13:12:30.192Z,23.48
2022-08-08T13:15:02.263Z,23.43
2022-08-08T13:18:08.847Z,23.25
2022-08-08T13:20:26.006Z,21.96
2022-08-08T13:25:58.597Z,22.94
2022-08-08T13:28:32.634Z,22.32
2022-08-08T13:31:04.008Z,22.02
2022-08-08T13:33:42.153Z,22.12
2022-08-08T13:36:13.698Z,23.22
2022-08-08T13:38:43.031Z,22.59
2022-08-08T13:41:16.361Z,21.76
2022-08-08T13:43:47.677Z,21.17
2022-08-08T13:46:26.060Z,22.58
2022-08-08T13:49:11.265Z,22.26
2022-08-08T13:51:52.319Z,21.75
2022-08-08T13:54:22.994Z,21.59
2022-08-08T13:57:12.441Z,22.60
2022-08-08T13:59:48.353Z,22.51
2022-08-08T14:02:21.171Z,23.37
2022-08-08T14:05:00.340Z,24.11
2022-08-08T14:07:42.376Z,22.31
2022-08-08T14:10:17.460Z,22.74
2022-08-08T14:12:48.360Z,23.22
2022-08-08T14:15:31.382Z,23.93
2022-08-08T14:18:36.660Z,22.30
2022-08-08T14:21:07.892Z,22.74
2022-08-08T14:24:04.199Z,22.15
2022-08-08T14:26:33.356Z,24.11
2022-08-08T14:29:06.092Z,22.28
2022-08-08T14:32:08.932Z,24.19
2022-08-08T14:34:39.131Z,24.38
2022-08-08T14:37:17.410Z,22.31
2022-08-08T14:39:53.986Z,23.76
2022-08-08T14:42:55.056Z,23.44
2022-08-08T14:45:33.671Z,23.89
2022-08-08T14:48:27.442Z,23.11
2022-08-08T14:51:07.510Z,23.12
2022-08-08T14:53:55.022Z,23.07
2022-08-08T14:56:25.942Z,22.30
2022-08-08T14:58:56.157Z,23.82
2022-08-08T15:01:29.991Z,22.60
2022-08-08T15:04:12.571Z,22.92
2022-08-08T15:06:44.481Z,23.32
2022-08-08T15:09:16.533Z,23.35
2022-08-08T15:11:53.439Z,23.90
2022-08-08T15:14:25.286Z,24.17
2022-08-08T15:16:57.131Z,22.86
2022-08-08T15:19:27.814Z,22.33
2022-08-08T15:21:57.809Z,24.26
2022-08-08T15:24:31.815Z,23.67
2022-08-08T15:27:19.957Z,22.34
2022-08-08T15:29:50.836Z,22.77
2022-08-08T15:32:26.249Z,22.13
2022-08-08T15:35:00.269Z,21.62
2022-08-08T15:37:30.181Z,22.38
2022-08-08T15:40:02.039Z,24.34
2022-08-08T15:42:32.293Z,22.67
2022-08-08T15:45:02.862Z,22.24
2022-08-08T15:47:32.396Z,21.83
2022-08-08T15:50:02.424Z,21.97
2022-08-08T15:52:34.204Z,22.11
2022-08-08T15:55:09.968Z,21.81
2022-08-08T15:57:40.035Z,23.13
2022-08-08T16:00:26.826Z,22.20
2022-08-08T16:02:57.969Z,22.76
2022-08-08T16:05:35.831Z,22.06
2022-08-08T16:08:20.137Z,22.27
2022-08-08T16:13:05.366Z,21.87
2022-08-08T16:13:45.050Z,21.88
2022-08-08T16:16:22.340Z,21.62
2022-08-08T16:18:56.745Z,21.46
2022-08-08T16:21:30.144Z,22.10
2022-08-08T16:24:01.137Z,22.23
2022-08-08T16:26:34.982Z,21.15
2022-08-08T16:29:09.091Z,21.87
2022-08-08T16:31:48.219Z,22.34
2022-08-08T16:34:19.713Z,21.20
2022-08-08T16:36:50.887Z,21.36
2022-08-08T16:39:59.798Z,22.41
2022-08-08T16:42:17.842Z,22.46
2022-08-08T16:44:54.288Z,21.28
2022-08-08T16:47:31.490Z,22.04
2022-08-08T16:50:15.498Z,22.19
2022-08-08T16:55:04.693Z,22.44
2022-08-08T16:55:52.336Z,23.10
2022-08-08T16:58:31.698Z,22.64
2022-08-08T17:01:05.766Z,23.19
2022-08-08T17:03:59.187Z,23.40
2022-08-08T17:06:37.071Z,22.54
2022-08-08T17:09:23.084Z,23.42
2022-08-08T17:11:55.598Z,23.54
2022-08-08T17:14:34.124Z,24.48
2022-08-08T17:17:04.805Z,24.46
2022-08-08T17:19:40.743Z,23.79
2022-08-08T17:22:10.980Z,24.19
2022-08-08T17:24:42.331Z,26.98
2022-08-08T17:27:12.883Z,25.70
2022-08-08T17:29:54.699Z,26.42
2022-08-08T17:32:29.026Z,26.12
2022-08-08T17:35:54.236Z,26.25
2022-08-08T17:37:53.382Z,26.61
2022-08-08T17:40:23.251Z,27.20
2022-08-08T17:42:52.381Z,26.68
2022-08-08T17:45:24.298Z,26.78
2022-08-08T17:47:54.944Z,27.68
2022-08-08T17:50:25.060Z,28.10
2022-08-08T17:52:57.570Z,28.56
2022-08-08T17:56:06.537Z,28.21
2022-08-08T17:58:17.775Z,28.75
2022-08-08T18:00:57.272Z,29.69
2022-08-08T18:03:30.829Z,30.60
2022-08-08T18:06:02.717Z,30.47
2022-08-08T18:08:41.308Z,30.21
2022-08-08T18:11:16.302Z,31.59
2022-08-08T18:13:47.496Z,31.36
2022-08-08T18:16:23.343Z,31.91
2022-08-08T18:18:56.563Z,32.31
2022-08-08T18:21:59.983Z,32.04
2022-08-08T18:24:21.810Z,32.28
2022-08-08T18:26:55.874Z,32.35
2022-08-08T18:29:33.066Z,33.74
2022-08-08T18:32:08.088Z,33.14
2022-08-08T18:34:39.493Z,34.78
2022-08-08T18:37:10.252Z,34.12
2022-08-08T18:39:59.226Z,34.81
2022-08-08T18:42:29.348Z,34.65
2022-08-08T18:44:58.134Z,36.44
2022-08-08T18:47:33.591Z,36.53
2022-08-08T18:50:03.330Z,36.87
2022-08-08T18:52:34.616Z,37.88
2022-08-08T18:55:10.556Z,37.64
2022-08-08T18:57:44.799Z,38.55
2022-08-08T19:00:19.644Z,40.05
2022-08-08T19:03:03.889Z,39.60
2022-08-08T19:05:45.407Z,39.39
2022-08-08T19:08:24.591Z,41.64
2022-08-08T19:10:59.230Z,40.21
2022-08-08T19:13:38.417Z,40.94
2022-08-08T19:16:19.384Z,40.86
2022-08-08T19:19:02.656Z,40.19
2022-08-08T19:21:48.902Z,41.31
2022-08-08T19:24:38.129Z,41.29
2022-08-08T19:27:15.014Z,39.67
2022-08-08T19:29:46.279Z,41.64
2022-08-08T19:32:19.716Z,42.11
2022-08-08T19:34:57.443Z,41.87
2022-08-08T19:37:43.454Z,42.72
2022-08-08T19:40:16.201Z,42.05
2022-08-08T19:42:46.371Z,42.37
2022-08-08T19:45:58.205Z,42.61
2022-08-08T19:48:06.039Z,43.34
2022-08-08T19:50:56.652Z,43.04
2022-08-08T19:53:54.075Z,43.21
2022-08-08T19:56:16.121Z,42.91
2022-08-08T19:58:51.438Z,43.36
2022-08-08T20:01:24.294Z,43.79
2022-08-08T20:04:03.564Z,43.92
2022-08-08T20:06:34.042Z,44.16
2022-08-08T20:09:08.977Z,44.34
2022-08-08T20:11:43.184Z,43.76
2022-08-08T20:14:33.811Z,43.99
2022-08-08T20:17:01.641Z,44.59
2022-08-08T20:19:34.323Z,44.69
2022-08-08T20:22:20.719Z,43.88
2022-08-08T20:27:21.107Z,43.79
2022-08-08T20:30:01.059Z,44.17
2022-08-08T20:32:31.930Z,44.79
2022-08-08T20:35:03.762Z,45.23
2022-08-08T20:37:46.751Z,44.52
2022-08-08T20:40:33.534Z,44.68
2022-08-08T20:43:16.047Z,45.14
2022-08-08T20:45:57.929Z,44.14
2022-08-08T20:48:32.384Z,44.66
2022-08-08T20:51:06.178Z,44.70
2022-08-08T20:53:59.937Z,45.01
2022-08-08T20:56:35.154Z,45.11
2022-08-08T20:59:09.089Z,45.65
2022-08-08T21:02:05.307Z,45.19
2022-08-08T21:04:27.905Z,45.54
2022-08-08T21:06:57.219Z,45.13
2022-08-08T21:09:31.786Z,45.27
2022-08-08T21:12:16.535Z,45.32
2022-08-08T21:14:49.018Z,45.96
2022-08-08T21:17:18.169Z,45.66
2022-08-08T21:19:48.641Z,45.66
2022-08-08T21:22:17.758Z,46.04
2022-08-08T21:24:52.635Z,46.26
2022-08-08T21:28:06.551Z,46.62
2022-08-08T21:30:19.269Z,46.69
2022-08-08T21:32:53.369Z,46.81
2022-08-08T21:36:14.406Z,47.00
2022-08-08T21:38:16.872Z,47.29
2022-08-08T21:40:56.171Z,47.16
2022-08-08T21:43:30.905Z,47.59
2022-08-08T21:48:06.528Z,47.51
2022-08-08T21:48:57.755Z,47.69
2022-08-08T21:54:18.013Z,48.18
2022-08-08T21:54:53.548Z,48.17
2022-08-08T21:57:09.987Z,48.03
2022-08-08T22:00:01.981Z,48.06
2022-08-08T22:02:27.938Z,47.94
2022-08-08T22:04:59.552Z,48.00
2022-08-08T22:07:40.372Z,48.40
2022-08-08T22:10:28.609Z,48.30
2022-08-08T22:13:17.021Z,48.66
2022-08-08T22:15:59.108Z,49.51
2022-08-08T22:18:31.679Z,49.23
2022-08-08T22:21:13.972Z,49.11
2022-08-08T22:23:53.513Z,49.51
2022-08-08T22:26:26.863Z,49.69
2022-08-08T22:29:15.044Z,49.89
2022-08-08T22:32:01.553Z,49.95
2022-08-08T22:34:33.209Z,50.71
2022-08-08T22:37:27.721Z,50.47
2022-08-08T22:40:01.088Z,50.86
2022-08-08T22:42:32.034Z,51.26
2022-08-08T22:45:12.400Z,51.59
2022-08-08T22:47:48.751Z,51.98
2022-08-08T22:50:27.074Z,52.15
2022-08-08T22:54:30.435Z,52.39
2022-08-08T22:55:59.438Z,52.98
2022-08-08T22:58:34.609Z,53.00
2022-08-08T23:02:03.002Z,54.46
2022-08-08T23:03:57.938Z,54.74
2022-08-08T23:06:27.332Z,54.61
2022-08-08T23:08:58.874Z,55.11
2022-08-08T23:12:28.705Z,56.01
2022-08-08T23:14:21.984Z,56.24
2022-08-08T23:16:59.406Z,56.83
2022-08-08T23:19:32.165Z,57.16
2022-08-08T23:22:04.599Z,56.69
2022-08-08T23:24:36.489Z,57.86
2022-08-08T23:27:07.053Z,57.90
2022-08-08T23:29:37.418Z,58.61
2022-08-08T23:32:10.953Z,59.17
2022-08-08T23:34:58.346Z,58.43
2022-08-08T23:38:00.924Z,57.89
2022-08-08T23:40:21.893Z,59.14
2022-08-08T23:42:51.617Z,59.35
2022-08-08T23:49:01.099Z,59.23
2022-08-08T23:49:06.330Z,59.29
2022-08-08T23:51:00.642Z,59.62
2022-08-08T23:53:55.950Z,60.58
2022-08-08T23:56:31.907Z,61.19
2022-08-08T23:59:03.818Z,62.34
